Time;durP1;ratioP1;P1;durP2;ratioP2;P2;SDS_P1;SDS_P2;PMS_P1;PMS_P2;Temp;Humidity;BMP_temperature;BMP_pressure;BME280_temperature;BME280_humidity;BME280_pressure;Samples;Min_cycle;Max_cycle;Signal;HPM_P1;HPM_P2
2022/03/13 00:01:32;;;;;;;;;;;;;;;;;;5025822;28;19928;-63
2022/03/13 00:04:00;;;;;;;;;;;;;;;;;;5024763;28;19968;-64
2022/03/13 00:06:27;;;;;;;;;;;;;;;;;;5022193;28;19932;-63
2022/03/13 00:08:58;;;;;;;;;;;;;;;;;;5024809;28;19929;-63
2022/03/13 00:11:27;;;;;;;;;;;;;;;;;;5023870;28;19987;-64
2022/03/13 00:13:54;;;;;;;;;;;;;;;;;;5025895;28;20281;-64
2022/03/13 00:16:21;;;;;;;;;;;;;;;;;;5024207;28;19936;-62
2022/03/13 00:18:47;;;;;;;;;;;;;;;;;;5024103;28;20000;-61
2022/03/13 00:21:14;;;;;;;;;;;;;;;;;;5024670;28;19960;-61
2022/03/13 00:23:40;;;;;;;;;;;;;;;;;;5019622;28;20445;-60
2022/03/13 00:26:06;;;;;;;;;;;;;;;;;;5021965;28;19929;-60
2022/03/13 00:28:33;;;;;;;;;;;;;;;;;;5024895;28;19929;-60
2022/03/13 00:30:59;;;;;;;;;;;;;;;;;;5024737;28;20011;-60
2022/03/13 00:33:25;;;;;;;;;;;;;;;;;;5022751;28;20019;-60
2022/03/13 00:35:51;;;;;;;;;;;;;;;;;;5020594;28;19929;-60
2022/03/13 00:38:19;;;;;;;;;;;;;;;;;;5022338;28;20283;-64
2022/03/13 00:40:50;;;;;;;;;;;;;;;;;;5023592;28;20496;-64
2022/03/13 00:43:16;;;;;;;;;;;;;;;;;;5023695;28;19929;-62
2022/03/13 00:45:43;;;;;;;;;;;;;;;;;;5024885;28;20501;-64
2022/03/13 00:48:09;;;;;;;;;;;;;;;;;;5022046;28;19929;-61
2022/03/13 00:50:35;;;;;;;;;;;;;;;;;;5025541;28;19940;-62
2022/03/13 00:53:02;;;;;;;;;;;;;;;;;;5030499;28;19944;-63
2022/03/13 00:55:28;;;;;;;;;;;;;;;;;;5027974;28;19929;-60
2022/03/13 00:57:54;;;;;;;;;;;;;;;;;;5027464;28;20284;-59
2022/03/13 01:00:21;;;;;;;;;;;;;;;;;;5029109;28;20422;-61
2022/03/13 01:02:48;;;;;;;;;;;;;;;;;;5026220;28;19976;-62
2022/03/13 01:05:14;;;;;;;;;;;;;;;;;;5029003;28;19925;-61
2022/03/13 01:07:40;;;;;;;;;;;;;;;;;;5023708;28;19992;-61
2022/03/13 01:10:06;;;;;;;;;;;;;;;;;;5028285;28;19935;-61
2022/03/13 01:12:32;;;;;;;;;;;;;;;;;;5027013;28;19929;-61
2022/03/13 01:14:58;;;;;;;;;;;;;;;;;;5030144;28;19991;-61
2022/03/13 01:17:25;;;;;;;;;;;;;;;;;;5028682;28;19936;-61
2022/03/13 01:19:51;;;;;;;;;;;;;;;;;;5028406;28;19971;-61
2022/03/13 01:22:17;;;;;;;;;;;;;;;;;;5029371;28;20006;-62
2022/03/13 01:24:45;;;;;;;;;;;;;;;;;;5022021;28;19933;-62
2022/03/13 01:27:11;;;;;;;;;;;;;;;;;;5022692;28;19933;-62
2022/03/13 01:29:37;;;;;;;;;;;;;;;;;;5022416;28;19935;-61
2022/03/13 01:32:04;;;;;;;;;;;;;;;;;;5021034;28;20028;-61
2022/03/13 01:34:30;;;;;;;;;;;;;;;;;;5021739;28;20315;-61
2022/03/13 01:36:56;;;;;;;;;;;;;;;;;;5022470;28;19983;-60
2022/03/13 01:39:23;;;;;;;;;;;;;;;;;;5023372;28;20419;-60
2022/03/13 01:41:49;;;;;;;;;;;;;;;;;;5023494;28;19983;-60
2022/03/13 01:44:15;;;;;;;;;;;;;;;;;;5016407;28;20043;-61
2022/03/13 01:46:42;;;;;;;;;;;;;;;;;;5023652;28;20411;-59
2022/03/13 01:49:08;;;;;;;;;;;;;;;;;;5023667;28;19926;-62
2022/03/13 01:51:34;;;;;;;;;;;;;;;;;;5019090;28;20032;-61
2022/03/13 01:54:01;;;;;;;;;;;;;;;;;;5020512;28;19937;-62
2022/03/13 01:56:28;;;;;;;;;;;;;;;;;;5026307;28;20024;-61
2022/03/13 01:58:54;;;;;;;;;;;;;;;;;;5022828;28;20015;-62
2022/03/13 02:01:20;;;;;;;;;;;;;;;;;;5026331;28;20261;-62
2022/03/13 02:03:46;;;;;;;;;;;;;;;;;;4679364;28;10000261;-62
2022/03/13 02:06:13;;;;;;;;;;;;;;;;;;5010674;28;20350;-63
2022/03/13 02:08:39;;;;;;;;;;;;;;;;;;5020615;28;19935;-63
2022/03/13 02:11:05;;;;;;;;;;;;;;;;;;5026124;28;19929;-63
2022/03/13 02:13:32;;;;;;;;;;;;;;;;;;5024539;28;20265;-63
2022/03/13 02:15:58;;;;;;;;;;;;;;;;;;5024710;28;20259;-63
2022/03/13 02:18:25;;;;;;;;;;;;;;;;;;5023209;28;20027;-61
2022/03/13 02:20:51;;;;;;;;;;;;;;;;;;5021398;28;19925;-61
2022/03/13 02:23:17;;;;;;;;;;;;;;;;;;5026354;28;20021;-61
2022/03/13 02:25:43;;;;;;;;;;;;;;;;;;5024420;28;19940;-60
2022/03/13 02:28:09;;;;;;;;;;;;;;;;;;5024851;28;19925;-61
2022/03/13 02:30:35;;;;;;;;;;;;;;;;;;5024905;28;19936;-60
2022/03/13 02:33:02;;;;;;;;;;;;;;;;;;5022401;28;19935;-61
2022/03/13 02:35:28;;;;;;;;;;;;;;;;;;5024084;28;20019;-60
2022/03/13 02:37:54;;;;;;;;;;;;;;;;;;5021894;28;19925;-60
2022/03/13 02:40:21;;;;;;;;;;;;;;;;;;5021959;28;20495;-61
2022/03/13 02:42:48;;;;;;;;;;;;;;;;;;5029293;22;20414;-62
2022/03/13 02:45:14;;;;;;;;;;;;;;;;;;4996633;28;19940;-63
2022/03/13 02:47:40;;;;;;;;;;;;;;;;;;4995709;28;19926;-64
2022/03/13 02:50:06;;;;;;;;;;;;;;;;;;4995732;28;20374;-61
2022/03/13 02:52:32;;;;;;;;;;;;;;;;;;4995144;28;19948;-62
2022/03/13 02:54:58;;;;;;;;;;;;;;;;;;4992844;28;19930;-63
2022/03/13 02:57:25;;;;;;;;;;;;;;;;;;4998554;28;19930;-61
2022/03/13 02:59:51;;;;;;;;;;;;;;;;;;4997219;28;19926;-62
2022/03/13 03:02:17;;;;;;;;;;;;;;;;;;4998779;28;19933;-64
2022/03/13 03:04:43;;;;;;;;;;;;;;;;;;4995426;28;20394;-63
2022/03/13 03:07:09;;;;;;;;;;;;;;;;;;4998249;28;19925;-65
2022/03/13 03:09:36;;;;;;;;;;;;;;;;;;5002628;28;19930;-65
2022/03/13 03:12:04;;;;;;;;;;;;;;;;;;4994391;28;19977;-63
2022/03/13 03:14:30;;;;;;;;;;;;;;;;;;4999508;28;19933;-66
2022/03/13 03:16:56;;;;;;;;;;;;;;;;;;4994342;28;19987;-65
2022/03/13 03:19:22;;;;;;;;;;;;;;;;;;5003157;28;19932;-64
2022/03/13 03:21:48;;;;;;;;;;;;;;;;;;4997968;28;19929;-64
2022/03/13 03:24:15;;;;;;;;;;;;;;;;;;4997066;28;19940;-67
2022/03/13 03:26:41;;;;;;;;;;;;;;;;;;4996772;28;20165;-61
2022/03/13 03:29:07;;;;;;;;;;;;;;;;;;4999848;28;19926;-60
2022/03/13 03:31:33;;;;;;;;;;;;;;;;;;5003539;28;19932;-61
2022/03/13 03:33:59;;;;;;;;;;;;;;;;;;4992111;28;19973;-61
2022/03/13 03:36:25;;;;;;;;;;;;;;;;;;4998248;28;20314;-61
2022/03/13 03:38:52;;;;;;;;;;;;;;;;;;5000553;28;19932;-59
2022/03/13 03:41:18;;;;;;;;;;;;;;;;;;4998493;28;20049;-61
2022/03/13 03:43:44;;;;;;;;;;;;;;;;;;4991639;28;19926;-59
2022/03/13 03:46:10;;;;;;;;;;;;;;;;;;4998195;28;19926;-60
2022/03/13 03:48:36;;;;;;;;;;;;;;;;;;4992707;28;20302;-59
2022/03/13 03:51:03;;;;;;;;;;;;;;;;;;4999597;28;19925;-60
2022/03/13 03:53:29;;;;;;;;;;;;;;;;;;4994460;28;19934;-59
2022/03/13 03:55:57;;;;;;;;;;;;;;;;;;5001365;28;20279;-65
2022/03/13 03:58:23;;;;;;;;;;;;;;;;;;5002092;28;19941;-63
2022/03/13 04:00:49;;;;;;;;;;;;;;;;;;5006697;28;19926;-62
2022/03/13 04:03:15;;;;;;;;;;;;;;;;;;4995159;28;19929;-64
2022/03/13 04:05:42;;;;;;;;;;;;;;;;;;5000929;28;19930;-62
2022/03/13 04:08:08;;;;;;;;;;;;;;;;;;4998427;28;19940;-61
2022/03/13 04:10:34;;;;;;;;;;;;;;;;;;5004571;28;19926;-61
2022/03/13 04:13:01;;;;;;;;;;;;;;;;;;4994798;28;19934;-63
2022/03/13 04:15:27;;;;;;;;;;;;;;;;;;4994053;28;19926;-63
2022/03/13 04:17:55;;;;;;;;;;;;;;;;;;4996134;28;20284;-63
2022/03/13 04:20:21;;;;;;;;;;;;;;;;;;4992653;28;19932;-61
2022/03/13 04:22:47;;;;;;;;;;;;;;;;;;5003711;28;20285;-61
2022/03/13 04:25:14;;;;;;;;;;;;;;;;;;4995015;28;19926;-62
2022/03/13 04:27:41;;;;;;;;;;;;;;;;;;4995668;28;19933;-62
2022/03/13 04:30:08;;;;;;;;;;;;;;;;;;4998156;28;20406;-60
2022/03/13 04:32:34;;;;;;;;;;;;;;;;;;4999652;28;19965;-59
2022/03/13 04:35:00;;;;;;;;;;;;;;;;;;5000904;28;20389;-59
2022/03/13 04:37:27;;;;;;;;;;;;;;;;;;4998699;28;19926;-61
2022/03/13 04:39:53;;;;;;;;;;;;;;;;;;4999925;28;19925;-61
2022/03/13 04:42:19;;;;;;;;;;;;;;;;;;4998803;28;19925;-60
2022/03/13 04:44:46;;;;;;;;;;;;;;;;;;5000435;28;19933;-60
2022/03/13 04:47:12;;;;;;;;;;;;;;;;;;4996222;28;20386;-60
2022/03/13 04:49:38;;;;;;;;;;;;;;;;;;4998324;28;19948;-60
2022/03/13 04:52:04;;;;;;;;;;;;;;;;;;4994105;28;19926;-60
2022/03/13 04:54:31;;;;;;;;;;;;;;;;;;4996973;28;19925;-60
2022/03/13 04:56:57;;;;;;;;;;;;;;;;;;4992869;28;20054;-62
2022/03/13 04:59:23;;;;;;;;;;;;;;;;;;4997602;28;20371;-63
2022/03/13 05:01:52;;;;;;;;;;;;;;;;;;4993482;28;19926;-63
2022/03/13 05:04:18;;;;;;;;;;;;;;;;;;4991359;28;19933;-63
2022/03/13 05:06:45;;;;;;;;;;;;;;;;;;4995098;28;20201;-63
2022/03/13 05:09:11;;;;;;;;;;;;;;;;;;4999883;28;19925;-66
2022/03/13 05:11:38;;;;;;;;;;;;;;;;;;4991870;28;20293;-62
2022/03/13 05:14:04;;;;;;;;;;;;;;;;;;4991983;28;20049;-62
2022/03/13 05:16:31;;;;;;;;;;;;;;;;;;4996241;28;20008;-62
2022/03/13 05:18:57;;;;;;;;;;;;;;;;;;4996113;28;20024;-63
2022/03/13 05:21:23;;;;;;;;;;;;;;;;;;4996114;28;19925;-66
2022/03/13 05:23:49;;;;;;;;;;;;;;;;;;4997779;28;19926;-62
2022/03/13 05:26:15;;;;;;;;;;;;;;;;;;4990608;28;19930;-63
2022/03/13 05:28:42;;;;;;;;;;;;;;;;;;4994244;28;19926;-63
2022/03/13 05:31:08;;;;;;;;;;;;;;;;;;4992038;28;20383;-62
2022/03/13 05:33:35;;;;;;;;;;;;;;;;;;4991377;28;19934;-62
2022/03/13 05:36:01;;;;;;;;;;;;;;;;;;4992063;28;20016;-64
2022/03/13 05:38:27;;;;;;;;;;;;;;;;;;4991144;28;19969;-63
2022/03/13 05:40:54;;;;;;;;;;;;;;;;;;4991488;28;19926;-62
2022/03/13 05:43:22;;;;;;;;;;;;;;;;;;4999090;28;20032;-61
2022/03/13 05:45:48;;;;;;;;;;;;;;;;;;4996461;28;19968;-63
2022/03/13 05:48:17;;;;;;;;;;;;;;;;;;5000707;28;19936;-62
2022/03/13 05:50:43;;;;;;;;;;;;;;;;;;4997091;28;19941;-62
2022/03/13 05:53:10;;;;;;;;;;;;;;;;;;4997771;28;19933;-62
2022/03/13 05:55:36;;;;;;;;;;;;;;;;;;5000788;28;20172;-61
2022/03/13 05:58:04;;;;;;;;;;;;;;;;;;4997900;28;20288;-61
2022/03/13 06:00:32;;;;;;;;;;;;;;;;;;4997168;28;20398;-63
2022/03/13 06:02:58;;;;;;;;;;;;;;;;;;5000188;28;19932;-64
2022/03/13 06:05:24;;;;;;;;;;;;;;;;;;5004261;28;19963;-64
2022/03/13 06:07:51;;;;;;;;;;;;;;;;;;5000130;28;19936;-62
2022/03/13 06:10:17;;;;;;;;;;;;;;;;;;4997111;28;19937;-62
2022/03/13 06:12:43;;;;;;;;;;;;;;;;;;5001919;28;19931;-62
2022/03/13 06:15:09;;;;;;;;;;;;;;;;;;4995886;28;19930;-62
2022/03/13 06:17:35;;;;;;;;;;;;;;;;;;4991201;28;19933;-62
2022/03/13 06:20:02;;;;;;;;;;;;;;;;;;5001592;28;19934;-63
2022/03/13 06:22:29;;;;;;;;;;;;;;;;;;4996629;28;19925;-63
2022/03/13 06:24:55;;;;;;;;;;;;;;;;;;4998676;28;19937;-63
2022/03/13 06:27:21;;;;;;;;;;;;;;;;;;4995015;28;19929;-63
2022/03/13 06:29:47;;;;;;;;;;;;;;;;;;4991955;28;19969;-63
2022/03/13 06:32:13;;;;;;;;;;;;;;;;;;4993962;28;19929;-62
2022/03/13 06:34:39;;;;;;;;;;;;;;;;;;5001043;28;20032;-62
2022/03/13 06:37:06;;;;;;;;;;;;;;;;;;4998896;28;19929;-62
2022/03/13 06:39:32;;;;;;;;;;;;;;;;;;4999585;28;19973;-62
2022/03/13 06:41:59;;;;;;;;;;;;;;;;;;4996882;28;19933;-62
2022/03/13 06:44:25;;;;;;;;;;;;;;;;;;5008392;28;20390;-63
2022/03/13 06:46:51;;;;;;;;;;;;;;;;;;4999509;28;19941;-63
2022/03/13 06:49:17;;;;;;;;;;;;;;;;;;5001817;28;19964;-61
2022/03/13 06:51:43;;;;;;;;;;;;;;;;;;4998898;28;19991;-61
2022/03/13 06:54:09;;;;;;;;;;;;;;;;;;5002948;28;19988;-61
2022/03/13 06:56:36;;;;;;;;;;;;;;;;;;5004297;28;19980;-61
2022/03/13 06:59:03;;;;;;;;;;;;;;;;;;5004573;28;19979;-62
2022/03/13 07:01:29;;;;;;;;;;;;;;;;;;4997144;28;19976;-61
2022/03/13 07:03:55;;;;;;;;;;;;;;;;;;5000207;28;19987;-60
2022/03/13 07:06:21;;;;;;;;;;;;;;;;;;5007469;28;20071;-60
2022/03/13 07:08:47;;;;;;;;;;;;;;;;;;5004476;28;20107;-60
2022/03/13 07:11:15;;;;;;;;;;;;;;;;;;4995210;28;19962;-60
2022/03/13 07:13:44;;;;;;;;;;;;;;;;;;5002693;28;19984;-60
2022/03/13 07:16:10;;;;;;;;;;;;;;;;;;5000036;28;20017;-59
2022/03/13 07:18:36;;;;;;;;;;;;;;;;;;5001752;28;20062;-61
2022/03/13 07:21:03;;;;;;;;;;;;;;;;;;4996104;28;19971;-59
2022/03/13 07:23:29;;;;;;;;;;;;;;;;;;5004125;28;20070;-61
2022/03/13 07:25:55;;;;;;;;;;;;;;;;;;5000059;28;19987;-61
2022/03/13 07:28:21;;;;;;;;;;;;;;;;;;5005163;28;20396;-60
2022/03/13 07:30:48;;;;;;;;;;;;;;;;;;4995456;28;19972;-61
2022/03/13 07:33:14;;;;;;;;;;;;;;;;;;5002963;28;20162;-59
2022/03/13 07:35:40;;;;;;;;;;;;;;;;;;5002815;28;20356;-60
2022/03/13 07:38:06;;;;;;;;;;;;;;;;;;5000176;28;19983;-63
2022/03/13 07:40:32;;;;;;;;;;;;;;;;;;4996172;28;19986;-61
2022/03/13 07:42:58;;;;;;;;;;;;;;;;;;5001559;28;20453;-62
2022/03/13 07:45:26;;;;;;;;;;;;;;;;;;5002991;28;19992;-62
2022/03/13 07:47:54;;;;;;;;;;;;;;;;;;5002074;28;20077;-61
2022/03/13 07:50:21;;;;;;;;;;;;;;;;;;4997047;28;20076;-61
2022/03/13 07:52:47;;;;;;;;;;;;;;;;;;4998663;28;19988;-61
2022/03/13 07:55:14;;;;;;;;;;;;;;;;;;5001307;28;20440;-61
2022/03/13 07:57:40;;;;;;;;;;;;;;;;;;5002731;28;19978;-61
2022/03/13 08:00:06;;;;;;;;;;;;;;;;;;4998982;28;19954;-60
2022/03/13 08:02:33;;;;;;;;;;;;;;;;;;4998650;28;20076;-60
2022/03/13 08:04:59;;;;;;;;;;;;;;;;;;5000201;28;20330;-59
2022/03/13 08:07:25;;;;;;;;;;;;;;;;;;4995308;28;19978;-59
2022/03/13 08:09:51;;;;;;;;;;;;;;;;;;5000693;28;19989;-64
2022/03/13 08:12:17;;;;;;;;;;;;;;;;;;4991293;28;19984;-58
2022/03/13 08:14:44;;;;;;;;;;;;;;;;;;5004334;28;19994;-62
2022/03/13 08:17:10;;;;;;;;;;;;;;;;;;5002254;28;19974;-62
2022/03/13 08:19:36;;;;;;;;;;;;;;;;;;5000638;28;19989;-62
2022/03/13 08:22:02;;;;;;;;;;;;;;;;;;4996170;28;19974;-62
2022/03/13 08:24:28;;;;;;;;;;;;;;;;;;4995969;28;19968;-61
2022/03/13 08:26:54;;;;;;;;;;;;;;;;;;4996126;28;19981;-61
2022/03/13 08:29:21;;;;;;;;;;;;;;;;;;4995260;28;20108;-61
2022/03/13 08:31:47;;;;;;;;;;;;;;;;;;4995912;28;20223;-63
2022/03/13 08:34:13;;;;;;;;;;;;;;;;;;4999101;28;20444;-62
2022/03/13 08:36:39;;;;;;;;;;;;;;;;;;5001158;28;20439;-62
2022/03/13 08:39:05;;;;;;;;;;;;;;;;;;5000154;28;20414;-60
2022/03/13 08:41:32;;;;;;;;;;;;;;;;;;4995905;28;20082;-62
2022/03/13 08:43:58;;;;;;;;;;;;;;;;;;4993656;28;20269;-62
2022/03/13 08:46:24;;;;;;;;;;;;;;;;;;4995898;28;19979;-62
2022/03/13 08:48:50;;;;;;;;;;;;;;;;;;5012182;22;19991;-63
2022/03/13 08:51:18;;;;;;;;;;;;;;;;;;4990248;28;19984;-62
2022/03/13 08:53:45;;;;;;;;;;;;;;;;;;5001626;28;19994;-62
2022/03/13 08:56:13;;;;;;;;;;;;;;;;;;4997247;28;20218;-62
2022/03/13 08:58:39;;;;;;;;;;;;;;;;;;4987450;28;19975;-70
2022/03/13 09:01:06;;;;;;;;;;;;;;;;;;4990862;28;19980;-69
2022/03/13 09:03:33;;;;;;;;;;;;;;;;;;4990734;28;20081;-69
2022/03/13 09:05:59;;;;;;;;;;;;;;;;;;4997152;28;20065;-69
2022/03/13 09:08:25;;;;;;;;;;;;;;;;;;4997458;28;20002;-69
2022/03/13 09:10:52;;;;;;;;;;;;;;;;;;4997557;28;20103;-69
2022/03/13 09:13:18;;;;;;;;;;;;;;;;;;4997605;28;20080;-69
2022/03/13 09:15:44;;;;;;;;;;;;;;;;;;4990299;28;20018;-69
2022/03/13 09:18:11;;;;;;;;;;;;;;;;;;4992740;28;19967;-69
2022/03/13 09:20:37;;;;;;;;;;;;;;;;;;5000540;28;20320;-68
2022/03/13 09:23:03;;;;;;;;;;;;;;;;;;4998884;28;19957;-69
2022/03/13 09:25:31;;;;;;;;;;;;;;;;;;5000635;28;19972;-70
2022/03/13 09:27:57;;;;;;;;;;;;;;;;;;4994788;28;20350;-70
2022/03/13 09:30:24;;;;;;;;;;;;;;;;;;5007771;28;19979;-69
2022/03/13 09:32:51;;;;;;;;;;;;;;;;;;5001126;28;20050;-69
2022/03/13 09:35:17;;;;;;;;;;;;;;;;;;5001120;28;19991;-69
2022/03/13 09:37:43;;;;;;;;;;;;;;;;;;4995441;28;19949;-69
2022/03/13 09:40:09;;;;;;;;;;;;;;;;;;5006019;28;19942;-69
2022/03/13 09:42:36;;;;;;;;;;;;;;;;;;4998296;28;19981;-69
2022/03/13 09:45:02;;;;;;;;;;;;;;;;;;5002228;28;20074;-70
2022/03/13 09:47:28;;;;;;;;;;;;;;;;;;4997124;28;19980;-69
2022/03/13 09:49:54;;;;;;;;;;;;;;;;;;4994668;28;19967;-69
2022/03/13 09:52:20;;;;;;;;;;;;;;;;;;4992234;28;19926;-69
2022/03/13 09:54:46;;;;;;;;;;;;;;;;;;4991131;28;19976;-69
2022/03/13 09:57:13;;;;;;;;;;;;;;;;;;4996095;28;19961;-70
2022/03/13 09:59:39;;;;;;;;;;;;;;;;;;4990719;28;20294;-69
2022/03/13 10:02:05;;;;;;;;;;;;;;;;;;4990079;28;19966;-70
2022/03/13 10:04:32;;;;;;;;;;;;;;;;;;4989625;28;20022;-68
2022/03/13 10:06:58;;;;;;;;;;;;;;;;;;4991105;28;20397;-69
2022/03/13 10:09:24;;;;;;;;;;;;;;;;;;4990273;28;19973;-69
2022/03/13 10:11:50;;;;;;;;;;;;;;;;;;4990545;28;20367;-68
2022/03/13 10:14:17;;;;;;;;;;;;;;;;;;4990323;28;20025;-69
2022/03/13 10:16:43;;;;;;;;;;;;;;;;;;4988682;28;19936;-69
2022/03/13 10:19:09;;;;;;;;;;;;;;;;;;4998311;28;19926;-69
2022/03/13 10:21:35;;;;;;;;;;;;;;;;;;4996889;28;19957;-69
2022/03/13 10:24:01;;;;;;;;;;;;;;;;;;4994888;28;19925;-69
2022/03/13 10:26:28;;;;;;;;;;;;;;;;;;4990949;28;19926;-70
2022/03/13 10:28:54;;;;;;;;;;;;;;;;;;5002174;28;19956;-69
2022/03/13 10:31:20;;;;;;;;;;;;;;;;;;4990018;28;20450;-69
2022/03/13 10:33:46;;;;;;;;;;;;;;;;;;4989462;28;19929;-68
2022/03/13 10:36:14;;;;;;;;;;;;;;;;;;4992189;28;20243;-69
2022/03/13 10:38:40;;;;;;;;;;;;;;;;;;4987043;28;20382;-68
2022/03/13 10:41:08;;;;;;;;;;;;;;;;;;4998377;28;19953;-69
2022/03/13 10:43:36;;;;;;;;;;;;;;;;;;4988705;28;19977;-68
2022/03/13 10:46:03;;;;;;;;;;;;;;;;;;4995321;28;19926;-69
2022/03/13 10:48:32;;;;;;;;;;;;;;;;;;4998024;28;19926;-68
2022/03/13 10:50:59;;;;;;;;;;;;;;;;;;4992220;28;19933;-68
2022/03/13 10:53:25;;;;;;;;;;;;;;;;;;4988900;28;20006;-64
2022/03/13 10:55:51;;;;;;;;;;;;;;;;;;4994622;28;19926;-61
2022/03/13 10:58:17;;;;;;;;;;;;;;;;;;4991920;28;20017;-61
2022/03/13 11:00:44;;;;;;;;;;;;;;;;;;4989912;28;19941;-64
2022/03/13 11:03:11;;;;;;;;;;;;;;;;;;4988904;28;20305;-64
2022/03/13 11:05:37;;;;;;;;;;;;;;;;;;4989028;28;19930;-65
2022/03/13 11:08:04;;;;;;;;;;;;;;;;;;4988924;28;19930;-62
2022/03/13 11:10:30;;;;;;;;;;;;;;;;;;4987332;28;19930;-63
2022/03/13 11:12:57;;;;;;;;;;;;;;;;;;4988537;28;19949;-63
2022/03/13 11:15:28;;;;;;;;;;;;;;;;;;4989132;28;20018;-63
2022/03/13 11:17:55;;;;;;;;;;;;;;;;;;4992222;28;20437;-63
2022/03/13 11:20:21;;;;;;;;;;;;;;;;;;4996813;28;19929;-63
2022/03/13 11:22:47;;;;;;;;;;;;;;;;;;4999325;28;19933;-66
2022/03/13 11:25:13;;;;;;;;;;;;;;;;;;4988998;28;19926;-63
2022/03/13 11:27:39;;;;;;;;;;;;;;;;;;4994968;28;19998;-62
2022/03/13 11:30:06;;;;;;;;;;;;;;;;;;4992771;28;19926;-63
2022/03/13 11:32:33;;;;;;;;;;;;;;;;;;4992271;28;19929;-64
2022/03/13 11:34:59;;;;;;;;;;;;;;;;;;4992706;28;19929;-64
2022/03/13 11:37:25;;;;;;;;;;;;;;;;;;4992660;28;19937;-63
2022/03/13 11:39:51;;;;;;;;;;;;;;;;;;4992339;28;20422;-63
2022/03/13 11:42:18;;;;;;;;;;;;;;;;;;4992787;28;19937;-70
2022/03/13 11:44:44;;;;;;;;;;;;;;;;;;4992929;28;20227;-71
2022/03/13 11:47:10;;;;;;;;;;;;;;;;;;4999307;28;19925;-69
2022/03/13 11:49:38;;;;;;;;;;;;;;;;;;4999661;28;19940;-71
2022/03/13 11:52:04;;;;;;;;;;;;;;;;;;4992982;28;19933;-70
2022/03/13 11:54:30;;;;;;;;;;;;;;;;;;4992011;28;19930;-71
2022/03/13 11:56:56;;;;;;;;;;;;;;;;;;4997973;28;20318;-70
2022/03/13 11:59:24;;;;;;;;;;;;;;;;;;4992990;28;20119;-71
2022/03/13 12:01:52;;;;;;;;;;;;;;;;;;4992798;28;20375;-71
2022/03/13 12:04:18;;;;;;;;;;;;;;;;;;4992189;28;19952;-70
2022/03/13 12:06:44;;;;;;;;;;;;;;;;;;4992444;28;20386;-70
2022/03/13 12:09:11;;;;;;;;;;;;;;;;;;4992073;28;19926;-71
2022/03/13 12:11:39;;;;;;;;;;;;;;;;;;4992955;28;19937;-70
2022/03/13 12:14:07;;;;;;;;;;;;;;;;;;4992714;28;19933;-70
2022/03/13 12:16:33;;;;;;;;;;;;;;;;;;4992842;28;19925;-69
2022/03/13 12:18:59;;;;;;;;;;;;;;;;;;4999901;28;19926;-70
2022/03/13 12:21:26;;;;;;;;;;;;;;;;;;5002645;28;19925;-70
2022/03/13 12:23:52;;;;;;;;;;;;;;;;;;4995719;28;20335;-70
2022/03/13 12:26:19;;;;;;;;;;;;;;;;;;4992197;28;20000;-70
2022/03/13 12:28:45;;;;;;;;;;;;;;;;;;4995585;28;19926;-70
2022/03/13 12:31:11;;;;;;;;;;;;;;;;;;4992859;28;20283;-70
2022/03/13 12:33:37;;;;;;;;;;;;;;;;;;4991990;28;19936;-69
2022/03/13 12:36:04;;;;;;;;;;;;;;;;;;4992890;28;20043;-71
2022/03/13 12:38:30;;;;;;;;;;;;;;;;;;4991335;28;19948;-70
2022/03/13 12:40:58;;;;;;;;;;;;;;;;;;4991860;28;19952;-69
2022/03/13 12:43:25;;;;;;;;;;;;;;;;;;4991746;28;19977;-71
2022/03/13 12:45:51;;;;;;;;;;;;;;;;;;4990357;28;19941;-70
2022/03/13 12:48:18;;;;;;;;;;;;;;;;;;4989730;28;19978;-70
2022/03/13 12:50:47;;;;;;;;;;;;;;;;;;4995332;28;20066;-70
2022/03/13 12:53:14;;;;;;;;;;;;;;;;;;4991653;28;19926;-72
2022/03/13 12:55:41;;;;;;;;;;;;;;;;;;4995291;28;19926;-71
2022/03/13 12:58:07;;;;;;;;;;;;;;;;;;4993460;28;19926;-70
2022/03/13 13:00:34;;;;;;;;;;;;;;;;;;4992205;28;19932;-72
2022/03/13 13:03:02;;;;;;;;;;;;;;;;;;4992005;28;19976;-70
2022/03/13 13:05:29;;;;;;;;;;;;;;;;;;4991756;28;20303;-70
2022/03/13 13:07:55;;;;;;;;;;;;;;;;;;4991997;28;19926;-70
2022/03/13 13:10:21;;;;;;;;;;;;;;;;;;4991467;28;19930;-70
2022/03/13 13:12:48;;;;;;;;;;;;;;;;;;4991776;28;20061;-69
2022/03/13 13:15:14;;;;;;;;;;;;;;;;;;4991261;28;20036;-69
2022/03/13 13:17:41;;;;;;;;;;;;;;;;;;4990799;28;19948;-70
2022/03/13 13:20:07;;;;;;;;;;;;;;;;;;5000218;28;20012;-71
2022/03/13 13:22:35;;;;;;;;;;;;;;;;;;5001852;28;19929;-70
2022/03/13 13:25:01;;;;;;;;;;;;;;;;;;4991460;28;20008;-71
2022/03/13 13:27:28;;;;;;;;;;;;;;;;;;4994501;28;19974;-70
2022/03/13 13:29:54;;;;;;;;;;;;;;;;;;4991368;28;20389;-70
2022/03/13 13:32:20;;;;;;;;;;;;;;;;;;4991451;28;19977;-68
2022/03/13 13:34:46;;;;;;;;;;;;;;;;;;4990134;28;20363;-68
2022/03/13 13:37:13;;;;;;;;;;;;;;;;;;4991280;28;19930;-68
2022/03/13 13:39:39;;;;;;;;;;;;;;;;;;4991605;28;20249;-69
2022/03/13 13:42:05;;;;;;;;;;;;;;;;;;4991807;28;19926;-68
2022/03/13 13:44:31;;;;;;;;;;;;;;;;;;4990664;28;19925;-60
2022/03/13 13:46:57;;;;;;;;;;;;;;;;;;4995717;28;20391;-68
2022/03/13 13:49:23;;;;;;;;;;;;;;;;;;4998372;28;19965;-68
2022/03/13 13:51:50;;;;;;;;;;;;;;;;;;4990251;28;20024;-68
2022/03/13 13:54:18;;;;;;;;;;;;;;;;;;4990156;28;19936;-68
2022/03/13 13:56:44;;;;;;;;;;;;;;;;;;4995227;28;20008;-68
2022/03/13 13:59:11;;;;;;;;;;;;;;;;;;4990146;28;20302;-68
2022/03/13 14:01:37;;;;;;;;;;;;;;;;;;4990620;28;19930;-67
2022/03/13 14:04:03;;;;;;;;;;;;;;;;;;4989331;28;19929;-68
2022/03/13 14:06:34;;;;;;;;;;;;;;;;;;4989823;28;20149;-68
2022/03/13 14:09:00;;;;;;;;;;;;;;;;;;5004774;28;19969;-68
2022/03/13 14:11:27;;;;;;;;;;;;;;;;;;4991717;28;19952;-69
2022/03/13 14:13:53;;;;;;;;;;;;;;;;;;4991171;28;19926;-69
2022/03/13 14:16:19;;;;;;;;;;;;;;;;;;4990703;28;19930;-68
2022/03/13 14:18:46;;;;;;;;;;;;;;;;;;5001048;28;19926;-69
2022/03/13 14:21:12;;;;;;;;;;;;;;;;;;5003105;28;20350;-68
2022/03/13 14:23:38;;;;;;;;;;;;;;;;;;5010110;28;20016;-69
2022/03/13 14:26:04;;;;;;;;;;;;;;;;;;4991571;28;19948;-69
2022/03/13 14:28:30;;;;;;;;;;;;;;;;;;4995430;28;19926;-69
2022/03/13 14:30:57;;;;;;;;;;;;;;;;;;4991468;28;20020;-63
2022/03/13 14:33:23;;;;;;;;;;;;;;;;;;4991255;28;20258;-67
2022/03/13 14:35:49;;;;;;;;;;;;;;;;;;4990823;28;20572;-68
2022/03/13 14:38:15;;;;;;;;;;;;;;;;;;4990308;28;19930;-67
2022/03/13 14:40:41;;;;;;;;;;;;;;;;;;4990573;28;20383;-67
2022/03/13 14:43:08;;;;;;;;;;;;;;;;;;4990828;28;19926;-67
2022/03/13 14:45:34;;;;;;;;;;;;;;;;;;4990857;28;19992;-65
2022/03/13 14:48:00;;;;;;;;;;;;;;;;;;4991589;28;19932;-67
2022/03/13 14:50:26;;;;;;;;;;;;;;;;;;5030021;22;19932;-68
2022/03/13 14:52:53;;;;;;;;;;;;;;;;;;5029424;28;19929;-68
2022/03/13 14:55:20;;;;;;;;;;;;;;;;;;5018853;28;19925;-68
2022/03/13 14:57:46;;;;;;;;;;;;;;;;;;5045142;28;20353;-68
2022/03/13 15:00:12;;;;;;;;;;;;;;;;;;5018255;28;20388;-68
2022/03/13 15:02:38;;;;;;;;;;;;;;;;;;5027648;28;20389;-68
2022/03/13 15:05:05;;;;;;;;;;;;;;;;;;5032418;28;19925;-68
2022/03/13 15:07:31;;;;;;;;;;;;;;;;;;5026642;28;20025;-68
2022/03/13 15:09:57;;;;;;;;;;;;;;;;;;5031108;28;20016;-68
2022/03/13 15:12:24;;;;;;;;;;;;;;;;;;5034684;28;19925;-68
2022/03/13 15:14:51;;;;;;;;;;;;;;;;;;5021103;28;19980;-69
2022/03/13 15:17:17;;;;;;;;;;;;;;;;;;5024274;28;20167;-68
2022/03/13 15:19:43;;;;;;;;;;;;;;;;;;5035828;28;20016;-68
2022/03/13 15:22:09;;;;;;;;;;;;;;;;;;5014257;28;19925;-69
2022/03/13 15:24:36;;;;;;;;;;;;;;;;;;5025875;28;19932;-69
2022/03/13 15:27:04;;;;;;;;;;;;;;;;;;5039307;28;20450;-67
2022/03/13 15:29:30;;;;;;;;;;;;;;;;;;5040016;28;19967;-69
2022/03/13 15:31:57;;;;;;;;;;;;;;;;;;5013739;28;20386;-69
2022/03/13 15:34:23;;;;;;;;;;;;;;;;;;5026667;28;19936;-67
2022/03/13 15:36:50;;;;;;;;;;;;;;;;;;5032934;28;20377;-67
2022/03/13 15:39:16;;;;;;;;;;;;;;;;;;5033480;28;20019;-67
2022/03/13 15:41:42;;;;;;;;;;;;;;;;;;5026402;28;20363;-67
2022/03/13 15:44:08;;;;;;;;;;;;;;;;;;5027080;28;19929;-68
2022/03/13 15:46:34;;;;;;;;;;;;;;;;;;5040162;28;19924;-68
2022/03/13 15:49:01;;;;;;;;;;;;;;;;;;5045765;28;20294;-69
2022/03/13 15:51:27;;;;;;;;;;;;;;;;;;5034545;28;19952;-69
2022/03/13 15:53:54;;;;;;;;;;;;;;;;;;5020393;28;19976;-68
2022/03/13 15:56:21;;;;;;;;;;;;;;;;;;5025119;28;19926;-69
2022/03/13 15:58:47;;;;;;;;;;;;;;;;;;5020333;28;20335;-68
2022/03/13 16:01:13;;;;;;;;;;;;;;;;;;5020545;28;19936;-69
2022/03/13 16:03:40;;;;;;;;;;;;;;;;;;5033020;28;19925;-70
2022/03/13 16:06:06;;;;;;;;;;;;;;;;;;5013563;28;20401;-69
2022/03/13 16:08:32;;;;;;;;;;;;;;;;;;5025951;28;19932;-69
2022/03/13 16:10:58;;;;;;;;;;;;;;;;;;5019791;28;19929;-67
2022/03/13 16:13:25;;;;;;;;;;;;;;;;;;5030778;28;19925;-64
2022/03/13 16:15:52;;;;;;;;;;;;;;;;;;5012853;28;20015;-67
2022/03/13 16:18:18;;;;;;;;;;;;;;;;;;5037490;28;19929;-65
2022/03/13 16:20:45;;;;;;;;;;;;;;;;;;5024993;28;19925;-67
2022/03/13 16:23:11;;;;;;;;;;;;;;;;;;5022497;28;20017;-66
2022/03/13 16:25:43;;;;;;;;;;;;;;;;;;5014177;28;19987;-67
2022/03/13 16:28:24;;;;;;;;;;;;;;;;;;4797368;28;9999844;-66
2022/03/13 16:33:25;;;;;;;;;;;;;;;;;;5263173;23;19983;-74
2022/03/13 16:35:51;;;;;;;;;;;;;;;;;;5026060;28;20394;-73
2022/03/13 16:38:17;;;;;;;;;;;;;;;;;;5028453;28;19929;-74
2022/03/13 16:40:43;;;;;;;;;;;;;;;;;;5033808;28;19929;-73
2022/03/13 16:43:10;;;;;;;;;;;;;;;;;;5030391;28;19932;-74